Pardeeville, Wisconsin
Current Conditions -  °F | °C
As of 3:30 AM on Saturday 20 Dec 2014 (Local Time) from KDLL Reporting Station
Light Snow Light Snow  
Wind Chill: 25°   Ceiling: 3000
Heat Index: 25°   Visibility: 3mi
Dew Point: 23°   Wind: 3mph
Humidity: 89%   Direction: 170°S
Pressure: 30.24"   Gusts: NA
Location:  43.54°N, 89.3°W
Report Text: KDLL 200930Z AUTO 17003KT 3SM -SN OVC030 M04/M05 A3024 RMK AO2 T10371052
Loading
Personal Weather Stations






























Interactive Weather Map New forecast layout! Learn more

10-Day Weather Forecast

Advertisements
Track Severe Weather on mobile